<?xml version="1.0" encoding="UTF-8" standalone="no" ?>
<gpx xmlns="http://www.topografix.com/GPX/1/1" xmlns:xsi="http://www.w3.org/2001/XMLSchema-instance" xsi:schemaLocation="http://www.topografix.com/GPX/1/1 http://www.topografix.com/GPX/1/1/gpx.xsd" version="1.1" creator="VisuGPX - https://www.visugpx.com">
  <metadata>
    <name>12194997-FO7 - Neuville - Conflans</name>
  </metadata>
  <trk>
    <name><![CDATA[12194997-FO7 - Neuville - Conflans]]></name>
    <trkseg>
      <trkpt lat="49.01363" lon="2.0577">
        <ele>23</ele>
        <time>2021-04-06T14:05:51Z</time>
      </trkpt>
      <trkpt lat="49.01375" lon="2.05756">
        <ele>23</ele>
        <time>2021-04-06T14:06:11Z</time>
      </trkpt>
      <trkpt lat="49.01387" lon="2.05736">
        <ele>22</ele>
        <time>2021-04-06T14:06:35Z</time>
      </trkpt>
      <trkpt lat="49.014" lon="2.05757">
        <ele>22</ele>
        <time>2021-04-06T14:07:00Z</time>
      </trkpt>
      <trkpt lat="49.01409" lon="2.05744">
        <ele>21</ele>
        <time>2021-04-06T14:07:17Z</time>
      </trkpt>
      <trkpt lat="49.01405" lon="2.05737">
        <ele>21</ele>
        <time>2021-04-06T14:07:25Z</time>
      </trkpt>
      <trkpt lat="49.01399" lon="2.05732">
        <ele>21</ele>
        <time>2021-04-06T14:07:34Z</time>
      </trkpt>
      <trkpt lat="49.01347" lon="2.05633">
        <ele>23</ele>
        <time>2021-04-06T14:09:25Z</time>
      </trkpt>
      <trkpt lat="49.01342" lon="2.0562">
        <ele>23</ele>
        <time>2021-04-06T14:09:38Z</time>
      </trkpt>
      <trkpt lat="49.01331" lon="2.05598">
        <ele>23</ele>
        <time>2021-04-06T14:10:02Z</time>
      </trkpt>
      <trkpt lat="49.01325" lon="2.05587">
        <ele>23</ele>
        <time>2021-04-06T14:10:15Z</time>
      </trkpt>
      <trkpt lat="49.01307" lon="2.05558">
        <ele>24</ele>
        <time>2021-04-06T14:10:50Z</time>
      </trkpt>
      <trkpt lat="49.01297" lon="2.05545">
        <ele>24</ele>
        <time>2021-04-06T14:11:07Z</time>
      </trkpt>
      <trkpt lat="49.01278" lon="2.05522">
        <ele>24</ele>
        <time>2021-04-06T14:11:40Z</time>
      </trkpt>
      <trkpt lat="49.01282" lon="2.05516">
        <ele>24</ele>
        <time>2021-04-06T14:11:47Z</time>
      </trkpt>
      <trkpt lat="49.01283" lon="2.05509">
        <ele>24</ele>
        <time>2021-04-06T14:11:54Z</time>
      </trkpt>
      <trkpt lat="49.01269" lon="2.0548">
        <ele>25</ele>
        <time>2021-04-06T14:12:25Z</time>
      </trkpt>
      <trkpt lat="49.01265" lon="2.05461">
        <ele>25</ele>
        <time>2021-04-06T14:12:42Z</time>
      </trkpt>
      <trkpt lat="49.01262" lon="2.05403">
        <ele>26</ele>
        <time>2021-04-06T14:13:33Z</time>
      </trkpt>
      <trkpt lat="49.0125" lon="2.0536">
        <ele>27</ele>
        <time>2021-04-06T14:14:14Z</time>
      </trkpt>
      <trkpt lat="49.01245" lon="2.05325">
        <ele>27</ele>
        <time>2021-04-06T14:14:46Z</time>
      </trkpt>
      <trkpt lat="49.01247" lon="2.05302">
        <ele>28</ele>
        <time>2021-04-06T14:15:06Z</time>
      </trkpt>
      <trkpt lat="49.01237" lon="2.05297">
        <ele>29</ele>
        <time>2021-04-06T14:15:20Z</time>
      </trkpt>
      <trkpt lat="49.01232" lon="2.05296">
        <ele>29</ele>
        <time>2021-04-06T14:15:27Z</time>
      </trkpt>
      <trkpt lat="49.01224" lon="2.05304">
        <ele>29</ele>
        <time>2021-04-06T14:15:40Z</time>
      </trkpt>
      <trkpt lat="49.01211" lon="2.05322">
        <ele>29</ele>
        <time>2021-04-06T14:16:03Z</time>
      </trkpt>
      <trkpt lat="49.01198" lon="2.05328">
        <ele>29</ele>
        <time>2021-04-06T14:16:21Z</time>
      </trkpt>
      <trkpt lat="49.01195" lon="2.05318">
        <ele>30</ele>
        <time>2021-04-06T14:16:31Z</time>
      </trkpt>
      <trkpt lat="49.01196" lon="2.0531">
        <ele>30</ele>
        <time>2021-04-06T14:16:38Z</time>
      </trkpt>
      <trkpt lat="49.0119" lon="2.05257">
        <ele>32</ele>
        <time>2021-04-06T14:17:25Z</time>
      </trkpt>
      <trkpt lat="49.01185" lon="2.05245">
        <ele>33</ele>
        <time>2021-04-06T14:17:37Z</time>
      </trkpt>
      <trkpt lat="49.01173" lon="2.05199">
        <ele>37</ele>
        <time>2021-04-06T14:18:21Z</time>
      </trkpt>
      <trkpt lat="49.01171" lon="2.05193">
        <ele>38</ele>
        <time>2021-04-06T14:18:27Z</time>
      </trkpt>
      <trkpt lat="49.01157" lon="2.05202">
        <ele>37</ele>
        <time>2021-04-06T14:18:47Z</time>
      </trkpt>
      <trkpt lat="49.01148" lon="2.05177">
        <ele>39</ele>
        <time>2021-04-06T14:19:12Z</time>
      </trkpt>
      <trkpt lat="49.01157" lon="2.05202">
        <ele>37</ele>
        <time>2021-04-06T14:19:37Z</time>
      </trkpt>
      <trkpt lat="49.01153" lon="2.05208">
        <ele>37</ele>
        <time>2021-04-06T14:19:44Z</time>
      </trkpt>
      <trkpt lat="49.01134" lon="2.0522">
        <ele>37</ele>
        <time>2021-04-06T14:20:12Z</time>
      </trkpt>
      <trkpt lat="49.01078" lon="2.05263">
        <ele>39</ele>
        <time>2021-04-06T14:21:35Z</time>
      </trkpt>
      <trkpt lat="49.01062" lon="2.05273">
        <ele>40</ele>
        <time>2021-04-06T14:21:58Z</time>
      </trkpt>
      <trkpt lat="49.01005" lon="2.05304">
        <ele>41</ele>
        <time>2021-04-06T14:23:19Z</time>
      </trkpt>
      <trkpt lat="49.00981" lon="2.05315">
        <ele>40</ele>
        <time>2021-04-06T14:23:53Z</time>
      </trkpt>
      <trkpt lat="49.00947" lon="2.05328">
        <ele>39</ele>
        <time>2021-04-06T14:24:39Z</time>
      </trkpt>
      <trkpt lat="49.00874" lon="2.05363">
        <ele>39</ele>
        <time>2021-04-06T14:26:22Z</time>
      </trkpt>
      <trkpt lat="49.00667" lon="2.05503">
        <ele>33</ele>
        <time>2021-04-06T14:31:24Z</time>
      </trkpt>
      <trkpt lat="49.00633" lon="2.05532">
        <ele>32</ele>
        <time>2021-04-06T14:32:16Z</time>
      </trkpt>
      <trkpt lat="49.00609" lon="2.05551">
        <ele>32</ele>
        <time>2021-04-06T14:32:52Z</time>
      </trkpt>
      <trkpt lat="49.00633" lon="2.05532">
        <ele>32</ele>
        <time>2021-04-06T14:33:28Z</time>
      </trkpt>
      <trkpt lat="49.00562" lon="2.05221">
        <ele>45</ele>
        <time>2021-04-06T14:38:16Z</time>
      </trkpt>
      <trkpt lat="49.00543" lon="2.05123">
        <ele>51</ele>
        <time>2021-04-06T14:39:46Z</time>
      </trkpt>
      <trkpt lat="49.00539" lon="2.0496">
        <ele>57</ele>
        <time>2021-04-06T14:42:08Z</time>
      </trkpt>
      <trkpt lat="49.00525" lon="2.04872">
        <ele>56</ele>
        <time>2021-04-06T14:43:28Z</time>
      </trkpt>
      <trkpt lat="49.00496" lon="2.04779">
        <ele>56</ele>
        <time>2021-04-06T14:44:58Z</time>
      </trkpt>
      <trkpt lat="49.0046" lon="2.04682">
        <ele>61</ele>
        <time>2021-04-06T14:46:35Z</time>
      </trkpt>
      <trkpt lat="49.00445" lon="2.04607">
        <ele>64</ele>
        <time>2021-04-06T14:47:44Z</time>
      </trkpt>
      <trkpt lat="49.00444" lon="2.04577">
        <ele>66</ele>
        <time>2021-04-06T14:48:10Z</time>
      </trkpt>
      <trkpt lat="49.00441" lon="2.04537">
        <ele>67</ele>
        <time>2021-04-06T14:48:46Z</time>
      </trkpt>
      <trkpt lat="49.00445" lon="2.04493">
        <ele>68</ele>
        <time>2021-04-06T14:49:24Z</time>
      </trkpt>
      <trkpt lat="49.00451" lon="2.04368">
        <ele>72</ele>
        <time>2021-04-06T14:51:14Z</time>
      </trkpt>
      <trkpt lat="49.00451" lon="2.04363">
        <ele>72</ele>
        <time>2021-04-06T14:51:19Z</time>
      </trkpt>
      <trkpt lat="49.00455" lon="2.04308">
        <ele>74</ele>
        <time>2021-04-06T14:52:07Z</time>
      </trkpt>
      <trkpt lat="49.00465" lon="2.04183">
        <ele>77</ele>
        <time>2021-04-06T14:53:57Z</time>
      </trkpt>
      <trkpt lat="49.00462" lon="2.04106">
        <ele>78</ele>
        <time>2021-04-06T14:55:05Z</time>
      </trkpt>
      <trkpt lat="49.00457" lon="2.03983">
        <ele>78</ele>
        <time>2021-04-06T14:56:53Z</time>
      </trkpt>
      <trkpt lat="49.00449" lon="2.03983">
        <ele>78</ele>
        <time>2021-04-06T14:57:03Z</time>
      </trkpt>
      <trkpt lat="49.00438" lon="2.03983">
        <ele>78</ele>
        <time>2021-04-06T14:57:18Z</time>
      </trkpt>
      <trkpt lat="49.00457" lon="2.0383">
        <ele>81</ele>
        <time>2021-04-06T14:59:34Z</time>
      </trkpt>
      <trkpt lat="49.00484" lon="2.03655">
        <ele>82</ele>
        <time>2021-04-06T15:02:12Z</time>
      </trkpt>
      <trkpt lat="49.00487" lon="2.03622">
        <ele>83</ele>
        <time>2021-04-06T15:02:41Z</time>
      </trkpt>
      <trkpt lat="49.00514" lon="2.03586">
        <ele>84</ele>
        <time>2021-04-06T15:03:29Z</time>
      </trkpt>
      <trkpt lat="49.00536" lon="2.03506">
        <ele>85</ele>
        <time>2021-04-06T15:04:45Z</time>
      </trkpt>
      <trkpt lat="49.00546" lon="2.0348">
        <ele>86</ele>
        <time>2021-04-06T15:05:11Z</time>
      </trkpt>
      <trkpt lat="49.00547" lon="2.03472">
        <ele>86</ele>
        <time>2021-04-06T15:05:18Z</time>
      </trkpt>
      <trkpt lat="49.00488" lon="2.03252">
        <ele>87</ele>
        <time>2021-04-06T15:08:46Z</time>
      </trkpt>
      <trkpt lat="49.00464" lon="2.03144">
        <ele>90</ele>
        <time>2021-04-06T15:10:26Z</time>
      </trkpt>
      <trkpt lat="49.00442" lon="2.02977">
        <ele>92</ele>
        <time>2021-04-06T15:12:55Z</time>
      </trkpt>
      <trkpt lat="49.0039" lon="2.02844">
        <ele>96</ele>
        <time>2021-04-06T15:15:11Z</time>
      </trkpt>
      <trkpt lat="49.0039" lon="2.02844">
        <ele>96</ele>
        <time>2021-04-06T15:15:11Z</time>
      </trkpt>
      <trkpt lat="49.0031" lon="2.02905">
        <ele>95</ele>
        <time>2021-04-06T15:17:10Z</time>
      </trkpt>
      <trkpt lat="49.00281" lon="2.02935">
        <ele>97</ele>
        <time>2021-04-06T15:17:57Z</time>
      </trkpt>
      <trkpt lat="49.00169" lon="2.03062">
        <ele>103</ele>
        <time>2021-04-06T15:21:03Z</time>
      </trkpt>
      <trkpt lat="49" lon="2.03173">
        <ele>108</ele>
        <time>2021-04-06T15:25:09Z</time>
      </trkpt>
      <trkpt lat="48.99993" lon="2.03179">
        <ele>107</ele>
        <time>2021-04-06T15:25:19Z</time>
      </trkpt>
      <trkpt lat="48.99991" lon="2.03185">
        <ele>107</ele>
        <time>2021-04-06T15:25:25Z</time>
      </trkpt>
      <trkpt lat="48.99984" lon="2.03276">
        <ele>102</ele>
        <time>2021-04-06T15:26:46Z</time>
      </trkpt>
      <trkpt lat="48.99969" lon="2.03379">
        <ele>100</ele>
        <time>2021-04-06T15:28:18Z</time>
      </trkpt>
      <trkpt lat="48.99966" lon="2.03393">
        <ele>100</ele>
        <time>2021-04-06T15:28:31Z</time>
      </trkpt>
      <trkpt lat="48.99959" lon="2.03413">
        <ele>100</ele>
        <time>2021-04-06T15:28:51Z</time>
      </trkpt>
      <trkpt lat="48.99952" lon="2.03421">
        <ele>100</ele>
        <time>2021-04-06T15:29:02Z</time>
      </trkpt>
      <trkpt lat="48.99942" lon="2.03429">
        <ele>101</ele>
        <time>2021-04-06T15:29:17Z</time>
      </trkpt>
      <trkpt lat="48.99573" lon="2.03602">
        <ele>106</ele>
        <time>2021-04-06T15:37:53Z</time>
      </trkpt>
      <trkpt lat="48.99396" lon="2.03638">
        <ele>100</ele>
        <time>2021-04-06T15:41:51Z</time>
      </trkpt>
      <trkpt lat="48.99241" lon="2.03629">
        <ele>96</ele>
        <time>2021-04-06T15:45:18Z</time>
      </trkpt>
      <trkpt lat="48.99199" lon="2.03622">
        <ele>98</ele>
        <time>2021-04-06T15:46:14Z</time>
      </trkpt>
      <trkpt lat="48.99095" lon="2.03578">
        <ele>106</ele>
        <time>2021-04-06T15:48:38Z</time>
      </trkpt>
      <trkpt lat="48.99053" lon="2.03554">
        <ele>110</ele>
        <time>2021-04-06T15:49:38Z</time>
      </trkpt>
      <trkpt lat="48.99032" lon="2.03549">
        <ele>112</ele>
        <time>2021-04-06T15:50:06Z</time>
      </trkpt>
      <trkpt lat="48.99033" lon="2.03581">
        <ele>111</ele>
        <time>2021-04-06T15:50:35Z</time>
      </trkpt>
      <trkpt lat="48.98993" lon="2.03762">
        <ele>105</ele>
        <time>2021-04-06T15:53:22Z</time>
      </trkpt>
      <trkpt lat="48.98972" lon="2.03843">
        <ele>104</ele>
        <time>2021-04-06T15:54:38Z</time>
      </trkpt>
      <trkpt lat="48.98948" lon="2.03893">
        <ele>105</ele>
        <time>2021-04-06T15:55:32Z</time>
      </trkpt>
      <trkpt lat="48.98926" lon="2.03992">
        <ele>109</ele>
        <time>2021-04-06T15:57:04Z</time>
      </trkpt>
      <trkpt lat="48.98925" lon="2.04003">
        <ele>109</ele>
        <time>2021-04-06T15:57:14Z</time>
      </trkpt>
      <trkpt lat="48.98926" lon="2.04015">
        <ele>109</ele>
        <time>2021-04-06T15:57:24Z</time>
      </trkpt>
      <trkpt lat="48.99003" lon="2.04486">
        <ele>99</ele>
        <time>2021-04-06T16:04:29Z</time>
      </trkpt>
      <trkpt lat="48.99038" lon="2.04661">
        <ele>98</ele>
        <time>2021-04-06T16:07:09Z</time>
      </trkpt>
      <trkpt lat="48.99051" lon="2.04707">
        <ele>97</ele>
        <time>2021-04-06T16:07:53Z</time>
      </trkpt>
      <trkpt lat="48.98999" lon="2.04733">
        <ele>98</ele>
        <time>2021-04-06T16:09:06Z</time>
      </trkpt>
      <trkpt lat="48.98897" lon="2.04791">
        <ele>102</ele>
        <time>2021-04-06T16:11:32Z</time>
      </trkpt>
      <trkpt lat="48.98799" lon="2.04842">
        <ele>104</ele>
        <time>2021-04-06T16:13:50Z</time>
      </trkpt>
      <trkpt lat="48.98766" lon="2.0488">
        <ele>103</ele>
        <time>2021-04-06T16:14:45Z</time>
      </trkpt>
      <trkpt lat="48.98731" lon="2.04933">
        <ele>100</ele>
        <time>2021-04-06T16:15:51Z</time>
      </trkpt>
      <trkpt lat="48.98701" lon="2.04983">
        <ele>98</ele>
        <time>2021-04-06T16:16:50Z</time>
      </trkpt>
      <trkpt lat="48.98677" lon="2.05017">
        <ele>97</ele>
        <time>2021-04-06T16:17:34Z</time>
      </trkpt>
      <trkpt lat="48.98646" lon="2.05049">
        <ele>96</ele>
        <time>2021-04-06T16:18:24Z</time>
      </trkpt>
      <trkpt lat="48.98622" lon="2.05085">
        <ele>94</ele>
        <time>2021-04-06T16:19:09Z</time>
      </trkpt>
      <trkpt lat="48.98616" lon="2.05099">
        <ele>94</ele>
        <time>2021-04-06T16:19:23Z</time>
      </trkpt>
      <trkpt lat="48.98625" lon="2.0519">
        <ele>90</ele>
        <time>2021-04-06T16:20:44Z</time>
      </trkpt>
      <trkpt lat="48.98627" lon="2.05249">
        <ele>87</ele>
        <time>2021-04-06T16:21:36Z</time>
      </trkpt>
      <trkpt lat="48.98636" lon="2.05328">
        <ele>82</ele>
        <time>2021-04-06T16:22:46Z</time>
      </trkpt>
      <trkpt lat="48.98644" lon="2.05402">
        <ele>79</ele>
        <time>2021-04-06T16:23:52Z</time>
      </trkpt>
      <trkpt lat="48.98671" lon="2.05613">
        <ele>70</ele>
        <time>2021-04-06T16:27:00Z</time>
      </trkpt>
      <trkpt lat="48.98711" lon="2.05801">
        <ele>63</ele>
        <time>2021-04-06T16:29:53Z</time>
      </trkpt>
      <trkpt lat="48.98704" lon="2.05802">
        <ele>63</ele>
        <time>2021-04-06T16:30:02Z</time>
      </trkpt>
      <trkpt lat="48.98711" lon="2.05939">
        <ele>49</ele>
        <time>2021-04-06T16:32:03Z</time>
      </trkpt>
      <trkpt lat="48.9871" lon="2.05966">
        <ele>46</ele>
        <time>2021-04-06T16:32:26Z</time>
      </trkpt>
      <trkpt lat="48.98723" lon="2.0598">
        <ele>44</ele>
        <time>2021-04-06T16:32:48Z</time>
      </trkpt>
      <trkpt lat="48.98714" lon="2.06001">
        <ele>41</ele>
        <time>2021-04-06T16:33:10Z</time>
      </trkpt>
      <trkpt lat="48.9869" lon="2.0599">
        <ele>42</ele>
        <time>2021-04-06T16:33:43Z</time>
      </trkpt>
      <trkpt lat="48.98687" lon="2.0601">
        <ele>40</ele>
        <time>2021-04-06T16:34:01Z</time>
      </trkpt>
      <trkpt lat="48.9869" lon="2.06125">
        <ele>31</ele>
        <time>2021-04-06T16:35:42Z</time>
      </trkpt>
      <trkpt lat="48.9866" lon="2.06118">
        <ele>31</ele>
        <time>2021-04-06T16:36:22Z</time>
      </trkpt>
      <trkpt lat="48.98613" lon="2.06348">
        <ele>23</ele>
        <time>2021-04-06T16:39:53Z</time>
      </trkpt>
      <trkpt lat="48.98628" lon="2.06359">
        <ele>23</ele>
        <time>2021-04-06T16:40:15Z</time>
      </trkpt>
      <trkpt lat="48.98529" lon="2.06665">
        <ele>22</ele>
        <time>2021-04-06T16:45:14Z</time>
      </trkpt>
      <trkpt lat="48.98554" lon="2.06724">
        <ele>22</ele>
        <time>2021-04-06T16:46:16Z</time>
      </trkpt>
      <trkpt lat="48.98594" lon="2.0682">
        <ele>22</ele>
        <time>2021-04-06T16:47:55Z</time>
      </trkpt>
      <trkpt lat="48.98629" lon="2.06909">
        <ele>23</ele>
        <time>2021-04-06T16:49:26Z</time>
      </trkpt>
      <trkpt lat="48.98672" lon="2.06983">
        <ele>22</ele>
        <time>2021-04-06T16:50:53Z</time>
      </trkpt>
      <trkpt lat="48.98706" lon="2.07022">
        <ele>22</ele>
        <time>2021-04-06T16:51:49Z</time>
      </trkpt>
      <trkpt lat="48.98741" lon="2.07051">
        <ele>22</ele>
        <time>2021-04-06T16:52:43Z</time>
      </trkpt>
      <trkpt lat="48.98777" lon="2.07073">
        <ele>21</ele>
        <time>2021-04-06T16:53:34Z</time>
      </trkpt>
      <trkpt lat="48.98854" lon="2.07083">
        <ele>21</ele>
        <time>2021-04-06T16:55:18Z</time>
      </trkpt>
      <trkpt lat="48.98928" lon="2.07118">
        <ele>20</ele>
        <time>2021-04-06T16:57:01Z</time>
      </trkpt>
      <trkpt lat="48.98852" lon="2.07304">
        <ele>24</ele>
        <time>2021-04-06T17:00:13Z</time>
      </trkpt>
      <trkpt lat="48.98834" lon="2.07349">
        <ele>24</ele>
        <time>2021-04-06T17:00:59Z</time>
      </trkpt>
      <trkpt lat="48.98806" lon="2.07404">
        <ele>23</ele>
        <time>2021-04-06T17:02:00Z</time>
      </trkpt>
      <trkpt lat="48.98777" lon="2.07415">
        <ele>22</ele>
        <time>2021-04-06T17:02:40Z</time>
      </trkpt>
      <trkpt lat="48.98762" lon="2.07373">
        <ele>21</ele>
        <time>2021-04-06T17:03:22Z</time>
      </trkpt>
      <trkpt lat="48.98744" lon="2.07274">
        <ele>21</ele>
        <time>2021-04-06T17:04:52Z</time>
      </trkpt>
      <trkpt lat="48.98739" lon="2.07253">
        <ele>21</ele>
        <time>2021-04-06T17:05:11Z</time>
      </trkpt>
      <trkpt lat="48.98748" lon="2.07226">
        <ele>21</ele>
        <time>2021-04-06T17:05:38Z</time>
      </trkpt>
      <trkpt lat="48.98778" lon="2.07214">
        <ele>21</ele>
        <time>2021-04-06T17:06:19Z</time>
      </trkpt>
      <trkpt lat="48.9879" lon="2.07219">
        <ele>21</ele>
        <time>2021-04-06T17:06:36Z</time>
      </trkpt>
      <trkpt lat="48.98872" lon="2.0725">
        <ele>23</ele>
        <time>2021-04-06T17:08:28Z</time>
      </trkpt>
      <trkpt lat="48.98936" lon="2.07092">
        <ele>21</ele>
        <time>2021-04-06T17:11:11Z</time>
      </trkpt>
      <trkpt lat="48.98939" lon="2.07094">
        <ele>21</ele>
        <time>2021-04-06T17:11:15Z</time>
      </trkpt>
      <trkpt lat="48.98954" lon="2.0706">
        <ele>22</ele>
        <time>2021-04-06T17:11:51Z</time>
      </trkpt>
      <trkpt lat="48.98934" lon="2.07116">
        <ele>20</ele>
        <time>2021-04-06T17:12:47Z</time>
      </trkpt>
      <trkpt lat="48.98945" lon="2.07121">
        <ele>20</ele>
        <time>2021-04-06T17:13:02Z</time>
      </trkpt>
      <trkpt lat="48.98949" lon="2.07106">
        <ele>20</ele>
        <time>2021-04-06T17:13:17Z</time>
      </trkpt>
      <trkpt lat="48.98945" lon="2.07121">
        <ele>20</ele>
        <time>2021-04-06T17:13:31Z</time>
      </trkpt>
      <trkpt lat="48.99022" lon="2.07143">
        <ele>20</ele>
        <time>2021-04-06T17:15:15Z</time>
      </trkpt>
      <trkpt lat="48.99139" lon="2.07162">
        <ele>21</ele>
        <time>2021-04-06T17:17:52Z</time>
      </trkpt>
      <trkpt lat="48.9922" lon="2.07157">
        <ele>20</ele>
        <time>2021-04-06T17:19:41Z</time>
      </trkpt>
      <trkpt lat="48.99267" lon="2.0715">
        <ele>20</ele>
        <time>2021-04-06T17:20:44Z</time>
      </trkpt>
      <trkpt lat="48.99286" lon="2.07144">
        <ele>20</ele>
        <time>2021-04-06T17:21:09Z</time>
      </trkpt>
      <trkpt lat="48.99317" lon="2.07128">
        <ele>21</ele>
        <time>2021-04-06T17:21:53Z</time>
      </trkpt>
      <trkpt lat="48.99359" lon="2.07099">
        <ele>21</ele>
        <time>2021-04-06T17:22:55Z</time>
      </trkpt>
      <trkpt lat="48.99381" lon="2.07089">
        <ele>21</ele>
        <time>2021-04-06T17:23:25Z</time>
      </trkpt>
      <trkpt lat="48.99457" lon="2.07071">
        <ele>21</ele>
        <time>2021-04-06T17:25:08Z</time>
      </trkpt>
      <trkpt lat="48.99487" lon="2.07068">
        <ele>20</ele>
        <time>2021-04-06T17:25:48Z</time>
      </trkpt>
      <trkpt lat="48.99523" lon="2.07067">
        <ele>20</ele>
        <time>2021-04-06T17:26:36Z</time>
      </trkpt>
      <trkpt lat="48.99582" lon="2.07068">
        <ele>19</ele>
        <time>2021-04-06T17:27:55Z</time>
      </trkpt>
      <trkpt lat="48.9965" lon="2.07072">
        <ele>19</ele>
        <time>2021-04-06T17:29:26Z</time>
      </trkpt>
      <trkpt lat="48.99651" lon="2.07063">
        <ele>20</ele>
        <time>2021-04-06T17:29:34Z</time>
      </trkpt>
      <trkpt lat="48.99709" lon="2.07085">
        <ele>20</ele>
        <time>2021-04-06T17:30:53Z</time>
      </trkpt>
      <trkpt lat="48.99766" lon="2.07112">
        <ele>20</ele>
        <time>2021-04-06T17:32:13Z</time>
      </trkpt>
      <trkpt lat="48.99795" lon="2.07129">
        <ele>20</ele>
        <time>2021-04-06T17:32:55Z</time>
      </trkpt>
      <trkpt lat="48.9981" lon="2.07149">
        <ele>20</ele>
        <time>2021-04-06T17:33:21Z</time>
      </trkpt>
      <trkpt lat="48.99845" lon="2.07151">
        <ele>20</ele>
        <time>2021-04-06T17:34:08Z</time>
      </trkpt>
      <trkpt lat="48.99854" lon="2.07149">
        <ele>20</ele>
        <time>2021-04-06T17:34:20Z</time>
      </trkpt>
      <trkpt lat="48.99866" lon="2.0714">
        <ele>21</ele>
        <time>2021-04-06T17:34:38Z</time>
      </trkpt>
      <trkpt lat="48.99892" lon="2.07114">
        <ele>21</ele>
        <time>2021-04-06T17:35:19Z</time>
      </trkpt>
      <trkpt lat="48.99912" lon="2.07115">
        <ele>22</ele>
        <time>2021-04-06T17:35:46Z</time>
      </trkpt>
      <trkpt lat="48.99923" lon="2.07113">
        <ele>22</ele>
        <time>2021-04-06T17:36:01Z</time>
      </trkpt>
      <trkpt lat="48.99945" lon="2.07103">
        <ele>22</ele>
        <time>2021-04-06T17:36:31Z</time>
      </trkpt>
      <trkpt lat="48.99955" lon="2.07096">
        <ele>22</ele>
        <time>2021-04-06T17:36:46Z</time>
      </trkpt>
      <trkpt lat="48.99974" lon="2.07076">
        <ele>23</ele>
        <time>2021-04-06T17:37:17Z</time>
      </trkpt>
      <trkpt lat="48.99978" lon="2.07073">
        <ele>23</ele>
        <time>2021-04-06T17:37:23Z</time>
      </trkpt>
      <trkpt lat="48.99987" lon="2.07072">
        <ele>23</ele>
        <time>2021-04-06T17:37:35Z</time>
      </trkpt>
      <trkpt lat="49" lon="2.07076">
        <ele>23</ele>
        <time>2021-04-06T17:37:53Z</time>
      </trkpt>
      <trkpt lat="49.00014" lon="2.07087">
        <ele>23</ele>
        <time>2021-04-06T17:38:14Z</time>
      </trkpt>
      <trkpt lat="49.00028" lon="2.07105">
        <ele>23</ele>
        <time>2021-04-06T17:38:38Z</time>
      </trkpt>
      <trkpt lat="49.00035" lon="2.07109">
        <ele>23</ele>
        <time>2021-04-06T17:38:48Z</time>
      </trkpt>
      <trkpt lat="49.00044" lon="2.07113">
        <ele>23</ele>
        <time>2021-04-06T17:39:01Z</time>
      </trkpt>
      <trkpt lat="49.00057" lon="2.07111">
        <ele>23</ele>
        <time>2021-04-06T17:39:18Z</time>
      </trkpt>
      <trkpt lat="49.00069" lon="2.07102">
        <ele>23</ele>
        <time>2021-04-06T17:39:36Z</time>
      </trkpt>
      <trkpt lat="49.00083" lon="2.071">
        <ele>23</ele>
        <time>2021-04-06T17:39:55Z</time>
      </trkpt>
      <trkpt lat="49.00096" lon="2.07102">
        <ele>23</ele>
        <time>2021-04-06T17:40:12Z</time>
      </trkpt>
      <trkpt lat="49.00101" lon="2.07105">
        <ele>23</ele>
        <time>2021-04-06T17:40:19Z</time>
      </trkpt>
      <trkpt lat="49.00109" lon="2.07108">
        <ele>23</ele>
        <time>2021-04-06T17:40:30Z</time>
      </trkpt>
      <trkpt lat="49.00128" lon="2.07105">
        <ele>23</ele>
        <time>2021-04-06T17:40:56Z</time>
      </trkpt>
      <trkpt lat="49.00197" lon="2.07081">
        <ele>21</ele>
        <time>2021-04-06T17:42:30Z</time>
      </trkpt>
      <trkpt lat="49.00235" lon="2.0706">
        <ele>20</ele>
        <time>2021-04-06T17:43:24Z</time>
      </trkpt>
      <trkpt lat="49.00258" lon="2.07044">
        <ele>20</ele>
        <time>2021-04-06T17:43:58Z</time>
      </trkpt>
      <trkpt lat="49.00285" lon="2.07018">
        <ele>21</ele>
        <time>2021-04-06T17:44:40Z</time>
      </trkpt>
      <trkpt lat="49.0032" lon="2.06988">
        <ele>21</ele>
        <time>2021-04-06T17:45:34Z</time>
      </trkpt>
      <trkpt lat="49.00341" lon="2.06965">
        <ele>20</ele>
        <time>2021-04-06T17:46:09Z</time>
      </trkpt>
      <trkpt lat="49.00356" lon="2.06955">
        <ele>20</ele>
        <time>2021-04-06T17:46:30Z</time>
      </trkpt>
      <trkpt lat="49.00394" lon="2.0692">
        <ele>19</ele>
        <time>2021-04-06T17:47:30Z</time>
      </trkpt>
      <trkpt lat="49.00454" lon="2.06853">
        <ele>21</ele>
        <time>2021-04-06T17:49:09Z</time>
      </trkpt>
      <trkpt lat="49.00465" lon="2.06836">
        <ele>22</ele>
        <time>2021-04-06T17:49:30Z</time>
      </trkpt>
      <trkpt lat="49.00552" lon="2.06765">
        <ele>21</ele>
        <time>2021-04-06T17:51:41Z</time>
      </trkpt>
      <trkpt lat="49.00578" lon="2.06718">
        <ele>21</ele>
        <time>2021-04-06T17:52:35Z</time>
      </trkpt>
      <trkpt lat="49.00586" lon="2.06706">
        <ele>21</ele>
        <time>2021-04-06T17:52:50Z</time>
      </trkpt>
      <trkpt lat="49.00609" lon="2.06679">
        <ele>21</ele>
        <time>2021-04-06T17:53:29Z</time>
      </trkpt>
      <trkpt lat="49.0073" lon="2.06479">
        <ele>24</ele>
        <time>2021-04-06T17:57:27Z</time>
      </trkpt>
      <trkpt lat="49.00749" lon="2.06443">
        <ele>24</ele>
        <time>2021-04-06T17:58:08Z</time>
      </trkpt>
      <trkpt lat="49.00767" lon="2.0642">
        <ele>24</ele>
        <time>2021-04-06T17:58:39Z</time>
      </trkpt>
      <trkpt lat="49.00784" lon="2.06405">
        <ele>24</ele>
        <time>2021-04-06T17:59:05Z</time>
      </trkpt>
      <trkpt lat="49.0082" lon="2.06362">
        <ele>22</ele>
        <time>2021-04-06T18:00:06Z</time>
      </trkpt>
      <trkpt lat="49.00842" lon="2.06323">
        <ele>21</ele>
        <time>2021-04-06T18:00:51Z</time>
      </trkpt>
      <trkpt lat="49.00857" lon="2.06303">
        <ele>21</ele>
        <time>2021-04-06T18:01:18Z</time>
      </trkpt>
      <trkpt lat="49.00863" lon="2.06286">
        <ele>21</ele>
        <time>2021-04-06T18:01:35Z</time>
      </trkpt>
      <trkpt lat="49.01006" lon="2.06104">
        <ele>21</ele>
        <time>2021-04-06T18:05:43Z</time>
      </trkpt>
      <trkpt lat="49.0104" lon="2.06064">
        <ele>21</ele>
        <time>2021-04-06T18:06:41Z</time>
      </trkpt>
      <trkpt lat="49.01069" lon="2.06025">
        <ele>20</ele>
        <time>2021-04-06T18:07:32Z</time>
      </trkpt>
      <trkpt lat="49.01132" lon="2.05931">
        <ele>22</ele>
        <time>2021-04-06T18:09:30Z</time>
      </trkpt>
      <trkpt lat="49.01192" lon="2.05832">
        <ele>21</ele>
        <time>2021-04-06T18:11:28Z</time>
      </trkpt>
      <trkpt lat="49.01235" lon="2.0577">
        <ele>23</ele>
        <time>2021-04-06T18:12:47Z</time>
      </trkpt>
      <trkpt lat="49.01268" lon="2.05731">
        <ele>23</ele>
        <time>2021-04-06T18:13:43Z</time>
      </trkpt>
      <trkpt lat="49.01273" lon="2.05726">
        <ele>23</ele>
        <time>2021-04-06T18:13:51Z</time>
      </trkpt>
      <trkpt lat="49.01282" lon="2.05724">
        <ele>24</ele>
        <time>2021-04-06T18:14:03Z</time>
      </trkpt>
      <trkpt lat="49.01293" lon="2.05712">
        <ele>24</ele>
        <time>2021-04-06T18:14:21Z</time>
      </trkpt>
      <trkpt lat="49.0131" lon="2.05681">
        <ele>24</ele>
        <time>2021-04-06T18:14:56Z</time>
      </trkpt>
      <trkpt lat="49.01323" lon="2.05647">
        <ele>24</ele>
        <time>2021-04-06T18:15:31Z</time>
      </trkpt>
      <trkpt lat="49.01321" lon="2.05644">
        <ele>24</ele>
        <time>2021-04-06T18:15:34Z</time>
      </trkpt>
    </trkseg>
  </trk>
</gpx>